createdAt,value
2019-05-12T00:02:07.742Z,91.00
2019-05-12T00:04:35.449Z,91.20
2019-05-12T00:07:02.982Z,91.70
2019-05-12T00:09:30.568Z,91.70
2019-05-12T00:11:59.111Z,91.70
2019-05-12T00:14:28.286Z,91.80
2019-05-12T00:16:58.067Z,92.00
2019-05-12T00:19:25.261Z,91.80
2019-05-12T00:21:53.113Z,91.10
2019-05-12T00:24:20.664Z,91.70
2019-05-12T00:26:49.695Z,91.00
2019-05-12T00:29:18.477Z,91.10
2019-05-12T00:31:47.795Z,91.10
2019-05-12T00:34:15.564Z,91.30
2019-05-12T00:36:43.128Z,91.40
2019-05-12T00:39:10.780Z,91.40
2019-05-12T00:41:39.000Z,91.00
2019-05-12T00:44:08.854Z,90.70
2019-05-12T00:46:38.356Z,90.90
2019-05-12T00:49:07.803Z,90.80
2019-05-12T00:51:34.674Z,91.10
2019-05-12T00:54:02.205Z,91.00
2019-05-12T00:56:30.008Z,91.00
2019-05-12T00:58:58.017Z,91.30
2019-05-12T01:01:25.668Z,91.60
2019-05-12T01:03:53.223Z,92.20
2019-05-12T01:06:20.757Z,91.60
2019-05-12T01:08:48.436Z,91.40
2019-05-12T01:11:17.822Z,92.10
2019-05-12T01:13:45.398Z,92.10
2019-05-12T01:16:12.936Z,92.10
2019-05-12T01:18:40.529Z,92.20
2019-05-12T01:21:08.108Z,92.40
2019-05-12T01:23:35.617Z,92.60
2019-05-12T01:26:03.336Z,91.90
2019-05-12T01:28:30.871Z,91.60
2019-05-12T01:31:00.349Z,91.80
2019-05-12T01:33:28.045Z,91.30
2019-05-12T01:35:55.592Z,91.20
2019-05-12T01:38:23.133Z,91.10
2019-05-12T01:40:50.709Z,91.30
2019-05-12T01:43:20.847Z,91.60
2019-05-12T01:45:48.264Z,91.10
2019-05-12T01:48:18.005Z,91.70
2019-05-12T01:50:47.443Z,91.30
2019-05-12T01:53:14.644Z,91.50
2019-05-12T01:55:42.224Z,91.10
2019-05-12T01:58:09.836Z,91.50
2019-05-12T02:00:38.890Z,91.10
2019-05-12T02:03:09.023Z,91.60
2019-05-12T02:05:38.099Z,91.80
2019-05-12T02:08:09.533Z,91.90
2019-05-12T02:10:38.738Z,91.80
2019-05-12T02:13:07.903Z,91.30
2019-05-12T02:15:35.247Z,91.40
2019-05-12T02:18:02.844Z,91.90
2019-05-12T02:20:30.393Z,91.50
2019-05-12T02:22:58.378Z,91.60
2019-05-12T02:25:27.982Z,91.50
2019-05-12T02:27:55.429Z,91.40
2019-05-12T02:30:22.963Z,91.20
2019-05-12T02:32:57.292Z,91.30
2019-05-12T02:35:20.103Z,91.60
2019-05-12T02:37:47.645Z,91.70
2019-05-12T02:40:15.461Z,91.60
2019-05-12T02:42:46.276Z,91.50
2019-05-12T02:45:15.374Z,91.40
2019-05-12T02:47:45.384Z,91.70
2019-05-12T02:50:14.378Z,91.50
2019-05-12T02:52:40.826Z,91.40
2019-05-12T02:55:09.982Z,91.60
2019-05-12T02:57:37.528Z,91.60
2019-05-12T03:00:06.105Z,91.10
2019-05-12T03:02:36.410Z,91.10
2019-05-12T03:05:07.185Z,91.30
2019-05-12T03:07:35.105Z,91.00
2019-05-12T03:10:05.011Z,90.80
2019-05-12T03:12:34.458Z,90.70
2019-05-12T03:15:01.438Z,90.60
2019-05-12T03:17:28.981Z,90.60
2019-05-12T03:19:56.517Z,90.80
2019-05-12T03:22:25.258Z,90.70
2019-05-12T03:25:07.962Z,90.30
2019-05-12T03:27:25.527Z,91.00
2019-05-12T03:29:51.689Z,90.40
2019-05-12T03:32:19.242Z,90.50
2019-05-12T03:34:47.781Z,90.70
2019-05-12T03:37:17.925Z,90.60
2019-05-12T03:39:44.894Z,90.50
2019-05-12T03:42:14.512Z,90.40
2019-05-12T03:44:44.429Z,90.90
2019-05-12T03:47:14.212Z,90.90
2019-05-12T03:49:40.374Z,90.80
2019-05-12T03:52:07.920Z,90.90
2019-05-12T03:54:35.462Z,90.90
2019-05-12T03:57:04.488Z,91.40
2019-05-12T03:59:34.846Z,91.10
2019-05-12T04:02:04.445Z,91.10
2019-05-12T04:04:34.103Z,91.20
2019-05-12T04:07:00.389Z,90.70
2019-05-12T04:09:27.913Z,91.30
2019-05-12T04:11:55.725Z,91.20
2019-05-12T04:14:25.285Z,90.90
2019-05-12T04:16:55.092Z,90.30
2019-05-12T04:19:24.698Z,90.80
2019-05-12T04:21:51.064Z,90.80
2019-05-12T04:24:18.593Z,90.90
2019-05-12T04:26:46.410Z,91.30
2019-05-12T04:29:15.449Z,91.10
2019-05-12T04:31:44.302Z,90.90
2019-05-12T04:34:15.798Z,90.60
2019-05-12T04:36:44.627Z,91.20
2019-05-12T04:39:10.541Z,90.60
2019-05-12T04:41:38.080Z,90.30
2019-05-12T04:44:06.175Z,90.80
2019-05-12T04:46:34.771Z,90.90
2019-05-12T04:49:05.320Z,90.50
2019-05-12T04:51:34.682Z,90.60
2019-05-12T04:54:00.975Z,90.70
2019-05-12T04:56:28.517Z,90.10
2019-05-12T04:58:56.102Z,91.10
2019-05-12T05:01:25.374Z,90.50
2019-05-12T05:03:54.535Z,90.80
2019-05-12T05:06:25.080Z,90.40
2019-05-12T05:08:54.282Z,90.90
2019-05-12T05:11:20.936Z,90.80
2019-05-12T05:13:48.514Z,90.60
2019-05-12T05:16:16.049Z,91.00
2019-05-12T05:18:44.009Z,90.30
2019-05-12T05:21:13.812Z,90.10
2019-05-12T05:23:40.980Z,90.10
2019-05-12T05:26:21.027Z,90.40
2019-05-12T05:28:37.788Z,89.30
2019-05-12T05:31:05.338Z,88.00
2019-05-12T05:33:34.015Z,89.30
2019-05-12T05:36:03.488Z,89.50
2019-05-12T05:38:31.545Z,89.60
2019-05-12T05:41:05.876Z,89.50
2019-05-12T05:43:30.004Z,89.20
2019-05-12T05:46:02.731Z,88.90
2019-05-12T05:48:26.833Z,88.80
2019-05-12T05:50:54.696Z,88.30
2019-05-12T05:53:24.292Z,88.30
2019-05-12T05:55:58.654Z,88.20
2019-05-12T05:58:20.862Z,87.50
2019-05-12T06:00:48.392Z,86.80
2019-05-12T06:03:23.242Z,88.30
2019-05-12T06:05:45.279Z,88.00
2019-05-12T06:08:16.295Z,88.10
2019-05-12T06:10:43.504Z,86.90
2019-05-12T06:13:11.172Z,86.70
2019-05-12T06:15:40.806Z,87.20
2019-05-12T06:18:08.273Z,88.30
2019-05-12T06:20:38.200Z,90.10
2019-05-12T06:23:05.124Z,88.90
2019-05-12T06:25:45.613Z,88.90
2019-05-12T06:28:04.593Z,88.90
2019-05-12T06:30:37.478Z,86.90
2019-05-12T06:33:04.084Z,88.70
2019-05-12T06:35:36.359Z,88.50
2019-05-12T06:38:01.787Z,89.60
2019-05-12T06:40:30.782Z,90.00
2019-05-12T06:42:59.146Z,90.30
2019-05-12T06:45:28.292Z,89.20
2019-05-12T06:47:56.173Z,88.50
2019-05-12T06:50:23.882Z,87.80
2019-05-12T06:52:53.109Z,87.80
2019-05-12T06:55:20.744Z,85.90
2019-05-12T06:57:50.234Z,84.50
2019-05-12T07:00:22.454Z,86.50
2019-05-12T07:02:52.340Z,85.70
2019-05-12T07:05:16.341Z,85.90
2019-05-12T07:07:46.046Z,85.30
2019-05-12T07:10:35.242Z,85.30
2019-05-12T07:12:58.299Z,86.70
2019-05-12T07:15:14.149Z,86.40
2019-05-12T07:17:44.168Z,86.50
2019-05-12T07:20:14.521Z,85.50
2019-05-12T07:22:45.801Z,85.10
2019-05-12T07:25:10.720Z,85.20
2019-05-12T07:27:39.759Z,83.10
2019-05-12T07:30:07.811Z,83.40
2019-05-12T07:32:35.339Z,83.50
2019-05-12T07:35:04.058Z,84.70
2019-05-12T07:37:33.966Z,85.30
2019-05-12T07:40:01.880Z,85.00
2019-05-12T07:42:32.832Z,86.10
2019-05-12T07:44:59.205Z,85.20
2019-05-12T07:47:29.296Z,84.80
2019-05-12T07:49:56.040Z,84.70
2019-05-12T07:52:24.229Z,86.10
2019-05-12T07:54:55.754Z,81.60
2019-05-12T07:57:21.341Z,78.40
2019-05-12T07:59:48.905Z,77.60
2019-05-12T08:02:16.452Z,74.30
2019-05-12T08:04:44.350Z,70.00
2019-05-12T08:07:14.311Z,71.00
2019-05-12T08:09:43.188Z,69.20
2019-05-12T08:12:16.402Z,69.80
2019-05-12T08:14:40.101Z,66.70
2019-05-12T08:17:16.859Z,66.30
2019-05-12T08:19:37.439Z,69.60
2019-05-12T08:22:05.028Z,69.90
2019-05-12T08:24:36.847Z,69.40
2019-05-12T08:27:06.096Z,73.10
2019-05-12T08:29:31.097Z,70.70
2019-05-12T08:31:58.648Z,69.30
2019-05-12T08:34:26.183Z,70.10
2019-05-12T08:36:57.963Z,66.00
2019-05-12T08:39:25.829Z,62.50
2019-05-12T08:41:53.561Z,64.90
2019-05-12T08:44:24.590Z,63.40
2019-05-12T08:46:53.364Z,63.60
2019-05-12T08:49:19.704Z,62.00
2019-05-12T08:51:49.647Z,63.50
2019-05-12T08:54:16.612Z,63.80
2019-05-12T08:56:44.168Z,62.50
2019-05-12T08:59:17.482Z,61.90
2019-05-12T09:01:40.972Z,62.90
2019-05-12T09:04:13.095Z,64.70
2019-05-12T09:06:37.894Z,69.10
2019-05-12T09:09:07.062Z,67.70
2019-05-12T09:11:34.613Z,66.00
2019-05-12T09:14:03.569Z,70.60
2019-05-12T09:16:33.172Z,68.40
2019-05-12T09:19:00.850Z,63.40
2019-05-12T09:21:31.790Z,59.10
2019-05-12T09:23:57.901Z,57.50
2019-05-12T09:26:28.370Z,59.90
2019-05-12T09:28:54.992Z,61.30
2019-05-12T09:31:25.439Z,60.90
2019-05-12T09:33:51.811Z,61.60
2019-05-12T09:36:20.029Z,59.40
2019-05-12T09:38:55.877Z,57.60
2019-05-12T09:41:18.120Z,56.60
2019-05-12T09:43:50.260Z,53.40
2019-05-12T09:46:14.928Z,53.40
2019-05-12T09:48:46.925Z,53.80
2019-05-12T09:51:13.333Z,56.40
2019-05-12T09:53:42.757Z,57.40
2019-05-12T09:56:10.614Z,56.40
2019-05-12T09:58:38.156Z,58.80
2019-05-12T10:01:05.705Z,56.00
2019-05-12T10:03:38.402Z,54.10
2019-05-12T10:06:03.780Z,51.90
2019-05-12T10:08:35.736Z,52.10
2019-05-12T10:11:00.968Z,54.60
2019-05-12T10:13:30.207Z,54.70
2019-05-12T10:15:58.750Z,55.80
2019-05-12T10:18:27.203Z,54.90
2019-05-12T10:20:54.737Z,54.90
2019-05-12T10:23:25.139Z,53.70
2019-05-12T10:25:53.650Z,53.40
2019-05-12T10:28:20.829Z,52.80
2019-05-12T10:30:53.669Z,55.30
2019-05-12T10:33:17.950Z,56.10
2019-05-12T10:35:45.488Z,55.80
2019-05-12T10:38:13.786Z,55.10
2019-05-12T10:40:44.238Z,55.00
2019-05-12T10:43:11.066Z,48.90
2019-05-12T10:45:38.650Z,50.10
2019-05-12T10:48:06.197Z,52.50
2019-05-12T10:50:34.240Z,50.80
2019-05-12T10:53:04.221Z,51.50
2019-05-12T10:55:33.422Z,53.50
2019-05-12T10:58:02.000Z,53.10
2019-05-12T11:00:29.770Z,52.90
2019-05-12T11:03:01.632Z,54.70
2019-05-12T11:05:26.588Z,56.30
2019-05-12T11:07:54.174Z,55.80
2019-05-12T11:10:23.312Z,55.10
2019-05-12T11:12:51.044Z,53.20
2019-05-12T11:15:18.697Z,55.20
2019-05-12T11:17:53.642Z,53.90
2019-05-12T11:20:21.392Z,55.60
2019-05-12T11:22:48.940Z,56.10
2019-05-12T11:25:16.480Z,55.10
2019-05-12T11:27:44.032Z,54.30
2019-05-12T11:30:13.183Z,53.60
2019-05-12T11:32:40.866Z,52.50
2019-05-12T11:35:08.403Z,54.70
2019-05-12T11:37:35.950Z,52.50
2019-05-12T11:40:04.470Z,51.90
2019-05-12T11:42:33.584Z,51.20
2019-05-12T11:45:01.313Z,52.00
2019-05-12T11:47:28.857Z,52.60
2019-05-12T11:49:58.471Z,51.50
2019-05-12T11:52:25.985Z,53.40
2019-05-12T11:54:54.301Z,55.60
2019-05-12T11:57:26.178Z,56.20
2019-05-12T11:59:59.098Z,56.70
2019-05-12T12:02:28.317Z,54.80
2019-05-12T12:04:49.743Z,56.10
2019-05-12T12:07:17.296Z,55.70
2019-05-12T12:09:49.493Z,55.80
2019-05-12T12:12:14.097Z,56.00
2019-05-12T12:14:46.193Z,55.30
2019-05-12T12:17:10.932Z,57.10
2019-05-12T12:19:43.891Z,57.70
2019-05-12T12:22:07.736Z,56.50
2019-05-12T12:24:38.212Z,56.30
2019-05-12T12:27:04.822Z,58.00
2019-05-12T12:29:34.432Z,58.50
2019-05-12T12:32:01.628Z,58.30
2019-05-12T12:34:30.349Z,56.80
2019-05-12T12:36:58.168Z,57.20
2019-05-12T12:39:25.710Z,58.10
2019-05-12T12:41:59.862Z,58.40
2019-05-12T12:44:24.229Z,56.90
2019-05-12T12:46:59.771Z,57.50
2019-05-12T12:49:22.937Z,57.90
2019-05-12T12:51:50.416Z,57.00
2019-05-12T12:54:17.967Z,59.00
2019-05-12T12:56:45.501Z,59.10
2019-05-12T12:59:14.683Z,60.80
2019-05-12T13:01:44.284Z,63.70
2019-05-12T13:04:13.299Z,62.30
2019-05-12T13:06:40.964Z,60.80
2019-05-12T13:09:18.211Z,63.20
2019-05-12T13:11:38.107Z,61.00
2019-05-12T13:14:05.649Z,59.70
2019-05-12T13:16:34.309Z,60.10
2019-05-12T13:19:06.089Z,57.90
2019-05-12T13:21:33.432Z,56.80
2019-05-12T13:24:00.545Z,56.20
2019-05-12T13:26:28.080Z,55.80
2019-05-12T13:28:55.768Z,53.70
2019-05-12T13:31:24.356Z,53.50
2019-05-12T13:33:54.893Z,54.10
2019-05-12T13:36:21.297Z,55.50
2019-05-12T13:38:48.840Z,57.20
2019-05-12T13:41:19.909Z,57.70
2019-05-12T13:43:54.466Z,58.10
2019-05-12T13:46:15.296Z,59.10
2019-05-12T13:48:43.417Z,59.70
2019-05-12T13:51:13.345Z,59.30
2019-05-12T13:53:45.698Z,58.50
2019-05-12T13:56:09.583Z,59.30
2019-05-12T13:58:42.755Z,58.40
2019-05-12T14:01:16.113Z,55.80
2019-05-12T14:03:39.865Z,53.00
2019-05-12T14:06:05.125Z,51.70
2019-05-12T14:08:34.296Z,52.20
2019-05-12T14:11:01.926Z,50.80
2019-05-12T14:13:29.552Z,50.00
2019-05-12T14:15:57.092Z,51.00
2019-05-12T14:18:24.942Z,50.30
2019-05-12T14:20:58.913Z,50.90
2019-05-12T14:23:23.950Z,50.40
2019-05-12T14:25:54.083Z,50.20
2019-05-12T14:28:23.247Z,50.80
2019-05-12T14:30:53.842Z,51.80
2019-05-12T14:33:19.910Z,51.80
2019-05-12T14:36:06.877Z,50.90
2019-05-12T14:38:34.705Z,50.10
2019-05-12T14:41:09.544Z,49.10
2019-05-12T14:43:33.898Z,49.90
2019-05-12T14:46:06.359Z,50.20
2019-05-12T14:48:30.080Z,51.80
2019-05-12T14:50:57.664Z,49.70
2019-05-12T14:53:25.199Z,50.50
2019-05-12T14:55:53.599Z,50.10
2019-05-12T14:58:23.446Z,51.30
2019-05-12T15:00:50.822Z,51.30
2019-05-12T15:03:19.860Z,50.50
2019-05-12T15:05:48.847Z,48.30
2019-05-12T15:08:21.169Z,47.10
2019-05-12T15:10:45.912Z,50.40
2019-05-12T15:13:13.928Z,47.60
2019-05-12T15:15:43.954Z,49.90
2019-05-12T15:18:13.806Z,50.20
2019-05-12T15:20:41.626Z,50.20
2019-05-12T15:23:10.105Z,46.80
2019-05-12T15:25:37.756Z,45.50
2019-05-12T15:28:05.292Z,46.50
2019-05-12T15:30:33.704Z,47.40
2019-05-12T15:33:04.308Z,46.10
2019-05-12T15:35:31.031Z,46.40
2019-05-12T15:37:58.645Z,48.10
2019-05-12T15:40:26.216Z,47.10
2019-05-12T15:42:55.162Z,46.70
2019-05-12T15:45:23.773Z,47.00
2019-05-12T15:47:53.411Z,48.90
2019-05-12T15:50:20.716Z,48.60
2019-05-12T15:52:48.248Z,48.50
2019-05-12T15:55:18.175Z,46.00
2019-05-12T15:57:45.073Z,45.90
2019-05-12T16:00:13.848Z,46.80
2019-05-12T16:02:44.061Z,48.80
2019-05-12T16:05:11.208Z,48.00
2019-05-12T16:07:39.671Z,46.70
2019-05-12T16:10:07.533Z,46.90
2019-05-12T16:12:35.322Z,46.50
2019-05-12T16:15:04.548Z,45.70
2019-05-12T16:17:34.202Z,44.40
2019-05-12T16:20:03.674Z,44.50
2019-05-12T16:22:37.271Z,43.40
2019-05-12T16:25:00.662Z,45.40
2019-05-12T16:27:33.892Z,45.60
2019-05-12T16:29:57.729Z,45.90
2019-05-12T16:32:27.298Z,45.90
2019-05-12T16:34:54.541Z,43.40
2019-05-12T16:37:47.262Z,42.60
2019-05-12T16:40:14.809Z,42.30
2019-05-12T16:42:48.369Z,80.80
2019-05-12T16:45:13.942Z,67.40
2019-05-12T16:47:41.009Z,70.00
2019-05-12T16:50:15.125Z,64.30
2019-05-12T16:52:40.587Z,59.10
2019-05-12T16:55:07.132Z,50.60
2019-05-12T16:57:34.693Z,48.70
2019-05-12T17:00:06.861Z,47.40
2019-05-12T17:02:39.452Z,48.50
2019-05-12T17:05:06.542Z,49.00
2019-05-12T17:07:30.673Z,48.10
2019-05-12T17:10:02.860Z,45.70
2019-05-12T17:12:32.203Z,41.50
2019-05-12T17:14:59.633Z,41.00
2019-05-12T17:17:26.441Z,41.50
2019-05-12T17:19:54.408Z,42.20
2019-05-12T17:22:23.954Z,43.30
2019-05-12T17:24:53.701Z,43.70
2019-05-12T17:27:26.685Z,43.60
2019-05-12T17:29:50.126Z,43.40
2019-05-12T17:32:17.672Z,44.30
2019-05-12T17:34:47.481Z,44.60
2019-05-12T17:37:14.723Z,45.60
2019-05-12T17:39:43.823Z,43.90
2019-05-12T17:42:13.156Z,43.70
2019-05-12T17:44:40.754Z,43.10
2019-05-12T17:47:12.903Z,44.90
2019-05-12T17:49:39.173Z,46.50
2019-05-12T17:52:13.111Z,46.10
2019-05-12T17:54:36.125Z,45.70
2019-05-12T17:57:04.076Z,45.00
2019-05-12T17:59:33.299Z,46.30
2019-05-12T18:02:05.709Z,47.40
2019-05-12T18:04:31.046Z,46.20
2019-05-12T18:07:06.084Z,46.50
2019-05-12T18:09:30.571Z,46.00
2019-05-12T18:11:57.992Z,47.90
2019-05-12T18:14:27.694Z,46.50
2019-05-12T18:17:02.382Z,47.70
2019-05-12T18:19:24.617Z,46.10
2019-05-12T18:21:54.867Z,47.30
2019-05-12T18:24:23.920Z,48.30
2019-05-12T18:26:56.584Z,47.20
2019-05-12T18:29:19.982Z,47.50
2019-05-12T18:31:47.528Z,46.20
2019-05-12T18:34:15.065Z,47.90
2019-05-12T18:36:43.362Z,48.10
2019-05-12T18:39:14.294Z,47.50
2019-05-12T18:41:40.173Z,49.00
2019-05-12T18:44:07.708Z,47.80
2019-05-12T18:46:44.454Z,47.60
2019-05-12T18:49:12.036Z,47.80
2019-05-12T18:51:34.290Z,49.00
2019-05-12T18:54:03.577Z,48.90
2019-05-12T18:56:33.599Z,50.10
2019-05-12T18:59:02.787Z,48.70
2019-05-12T19:01:30.140Z,49.40
2019-05-12T19:03:57.685Z,49.00
2019-05-12T19:06:25.558Z,48.80
2019-05-12T19:08:53.865Z,50.50
2019-05-12T19:11:23.671Z,49.40
2019-05-12T19:13:52.319Z,50.90
2019-05-12T19:16:20.120Z,49.90
2019-05-12T19:18:48.058Z,50.80
2019-05-12T19:21:19.724Z,49.80
2019-05-12T19:23:44.957Z,49.00
2019-05-12T19:26:13.611Z,49.40
2019-05-12T19:28:51.958Z,48.30
2019-05-12T19:31:10.605Z,49.70
2019-05-12T19:33:43.930Z,50.30
2019-05-12T19:36:08.181Z,50.80
2019-05-12T19:38:35.825Z,51.20
2019-05-12T19:41:04.641Z,50.80
2019-05-12T19:43:34.006Z,51.80
2019-05-12T19:46:03.387Z,51.30
2019-05-12T19:48:34.988Z,51.00
2019-05-12T19:51:16.006Z,53.00
2019-05-12T19:53:29.992Z,51.10
2019-05-12T19:55:57.529Z,51.60
2019-05-12T19:58:25.079Z,53.10
2019-05-12T20:00:54.270Z,54.40
2019-05-12T20:03:24.036Z,52.90
2019-05-12T20:05:53.755Z,51.30
2019-05-12T20:08:20.604Z,51.00
2019-05-12T20:10:49.627Z,52.10
2019-05-12T20:13:17.348Z,52.10
2019-05-12T20:15:45.185Z,51.20
2019-05-12T20:18:14.647Z,52.60
2019-05-12T20:20:44.624Z,51.60
2019-05-12T20:23:11.303Z,51.20
2019-05-12T20:25:38.836Z,51.30
2019-05-12T20:28:11.237Z,52.00
2019-05-12T20:30:35.649Z,51.20
2019-05-12T20:33:04.244Z,51.40
2019-05-12T20:35:33.766Z,50.60
2019-05-12T20:38:04.050Z,51.00
2019-05-12T20:40:32.258Z,51.90
2019-05-12T20:43:07.875Z,51.10
2019-05-12T20:45:33.091Z,51.30
2019-05-12T20:47:59.140Z,51.70
2019-05-12T20:50:32.552Z,52.50
2019-05-12T20:52:59.024Z,51.90
2019-05-12T20:55:25.300Z,52.10
2019-05-12T20:57:56.667Z,52.70
2019-05-12T21:00:24.254Z,52.40
2019-05-12T21:02:53.769Z,52.50
2019-05-12T21:05:20.664Z,52.10
2019-05-12T21:07:48.508Z,52.30
2019-05-12T21:10:19.938Z,52.70
2019-05-12T21:12:49.893Z,52.70
2019-05-12T21:15:20.150Z,53.10
2019-05-12T21:17:46.833Z,53.20
2019-05-12T21:20:16.548Z,53.10
2019-05-12T21:22:43.538Z,53.50
2019-05-12T21:25:12.867Z,53.20
2019-05-12T21:27:43.873Z,53.30
2019-05-12T21:30:11.949Z,53.70
2019-05-12T21:32:39.221Z,53.70
2019-05-12T21:35:18.431Z,54.40
2019-05-12T21:37:37.102Z,54.20
2019-05-12T21:40:06.176Z,54.10
2019-05-12T21:42:33.982Z,54.40
2019-05-12T21:45:04.327Z,54.40
2019-05-12T21:47:34.037Z,54.40
2019-05-12T21:50:00.105Z,54.40
2019-05-12T21:52:27.642Z,55.80
2019-05-12T21:54:55.637Z,54.80
2019-05-12T21:57:27.551Z,55.60
2019-05-12T21:59:53.177Z,55.50
2019-05-12T22:02:28.971Z,55.20
2019-05-12T22:04:53.267Z,54.90
2019-05-12T22:07:20.477Z,55.50
2019-05-12T22:09:48.303Z,54.50
2019-05-12T22:12:15.840Z,54.60
2019-05-12T22:14:46.297Z,55.20
2019-05-12T22:17:13.669Z,54.80
2019-05-12T22:19:41.372Z,55.30
2019-05-12T22:22:08.905Z,55.20
2019-05-12T22:24:38.812Z,55.10
2019-05-12T22:27:05.712Z,55.50
2019-05-12T22:29:34.219Z,55.50
2019-05-12T22:32:01.969Z,55.30
2019-05-12T22:34:37.236Z,55.80
2019-05-12T22:36:59.364Z,55.70
2019-05-12T22:39:27.105Z,55.60
2019-05-12T22:41:54.641Z,55.10
2019-05-12T22:44:24.903Z,55.40
2019-05-12T22:46:53.900Z,54.20
2019-05-12T22:49:21.299Z,55.00
2019-05-12T22:51:56.922Z,54.50
2019-05-12T22:54:18.293Z,54.60
2019-05-12T22:56:49.472Z,55.00
2019-05-12T22:59:15.196Z,54.60
2019-05-12T23:01:46.275Z,56.10
2019-05-12T23:04:14.090Z,55.90
2019-05-12T23:06:42.452Z,55.10
2019-05-12T23:09:10.552Z,55.50
2019-05-12T23:11:38.112Z,55.00
2019-05-12T23:14:05.651Z,55.00
2019-05-12T23:16:33.626Z,55.40
2019-05-12T23:19:09.784Z,55.10
2019-05-12T23:21:30.589Z,55.70
2019-05-12T23:24:00.599Z,55.50
2019-05-12T23:26:27.389Z,54.70
2019-05-12T23:28:54.928Z,55.80
2019-05-12T23:31:25.892Z,55.70
2019-05-12T23:33:54.219Z,55.60
2019-05-12T23:36:34.979Z,55.70
2019-05-12T23:38:54.181Z,55.80
2019-05-12T23:41:19.825Z,56.60
2019-05-12T23:43:47.370Z,56.20
2019-05-12T23:46:15.291Z,57.60
2019-05-12T23:48:43.970Z,55.70
2019-05-12T23:51:14.195Z,56.20
2019-05-12T23:53:41.194Z,57.50
2019-05-12T23:56:08.746Z,56.80
2019-05-12T23:58:36.281Z,57.30
